• Join FlightAware (Why Join?)
  • Login
  • US Flag 
06:21PM EDT


 

Airport Tracker/Info


-or-


 

Live Flight TrackerFlight Track Log ✈ PDT4325 ✈ 27-Apr-2012 ✈ KITH - KPHL

Flight Track Log - Related Links

Times and Time Zones

All times are in EDT time to prevent confusion due to time zone crossing. See the PDT4325 flight status page for this flight to view local times or setup timezone preferences in your user account.

Time Position Orientation Groundspeed Altitude Reporting Facility
EDT Latitude Longitude Course Direction KTS MPH feet Rate Location/Type
02:08PM 42.4800 -76.4473 317° Northwest  Level FlightAware Approximate
02:09PM 42.4265 -76.4219 328° Northwest  Level FlightAware Approximate
02:10PM 42.5300 -76.5100 64° Northeast 114 131 3,500  Level New York Center
02:11PM 42.5419 -76.4772 145° Southeast 142 163 5,200 1,680 Climbing New York Center
02:12PM 42.5061 -76.4433 150° Southeast 111 128 6,900 1,320 Climbing New York Center
02:13PM 42.4619 -76.4086 152° Southeast 155 178 7,900 840 Climbing New York Center
02:14PM 42.4056 -76.3672 146° Southeast 207 238 8,600 540 Climbing New York Center
02:15PM 42.3478 -76.3144 146° Southeast 241 277 9,000 180 Climbing New York Center
02:16PM 42.2858 -76.2589 147° Southeast 261 300 9,000  Level New York Center
02:17PM 42.2217 -76.2031 143° Southeast 266 306 9,000  Level New York Center
02:18PM 42.1639 -76.1453 153° Southeast 266 306 9,000  Level New York Center
02:19PM 42.0994 -76.1008 160° South 266 306 9,000  Level New York Center
02:20PM 42.0300 -76.0672 160° South 261 300 9,000  Level New York Center
02:21PM 41.9689 -76.0372 162° South 261 300 9,000  Level New York Center
02:22PM 41.8994 -76.0067 159° South 261 300 9,000  Level New York Center
02:23PM 41.8242 -75.9675 158° South 261 300 9,000  Level New York Center
02:24PM 41.7572 -75.9317 157° South 261 300 9,000  Level New York Center
02:25PM 41.6900 -75.8931 159° South 261 300 9,000 -240 Level New York Center
02:26PM 41.6269 -75.8606 160° South 266 306 8,600 -540 Descending New York Center
02:27PM 41.5472 -75.8211 161° South 271 312 8,000 -300 Descending New York Center
02:28PM 41.4842 -75.7914 160° South 271 312 8,000  Level New York Center
02:29PM 41.4167 -75.7589 162° South 271 312 8,000  Level New York Center
02:30PM 41.3492 -75.7289 162° South 265 305 8,000  Level New York Center
02:31PM 41.2797 -75.6989 161° South 259 298 8,000  Level New York Center
02:32PM 41.2081 -75.6661 162° South 259 298 8,000  Level New York Center
02:33PM 41.0972 -75.6175 162° South 256 295 8,000  Level FAA TRACON SMA TRACON (SMA)
02:34PM 41.0481 -75.5961 163° South 256 295 8,000  Level FAA TRACON SMA TRACON (SMA)
02:35PM 41.0042 -75.5781 160° South 256 295 8,000  Level FAA TRACON SMA TRACON (SMA)
02:35PM 40.9608 -75.5575 160° South 257 296 8,000  Level FAA TRACON SMA TRACON (SMA)
02:36PM 40.9169 -75.5367 160° South 260 299 8,000  Level FAA TRACON SMA TRACON (SMA)
02:37PM 40.8672 -75.5122 162° South 261 300 8,000  Level FAA TRACON SMA TRACON (SMA)
02:37PM 40.8231 -75.4931 162° South 262 302 8,000  Level FAA TRACON SMA TRACON (SMA)
02:38PM 40.7747 -75.4728 162° South 262 302 8,000  Level FAA TRACON SMA TRACON (SMA)
02:39PM 40.7317 -75.4539 183° South 263 303 8,000  Level FAA TRACON SMA TRACON (SMA)
02:39PM 40.6844 -75.4572 196° South 236 272 8,000 -240 Level FAA TRACON SMA TRACON (SMA)
02:40PM 40.6392 -75.4747 192° South 248 285 7,700 -720 Descending FAA TRACON SMA TRACON (SMA)
02:41PM 40.5936 -75.4878 194° South 252 290 7,100 -1,020 Descending FAA TRACON SMA TRACON (SMA)
02:41PM 40.5494 -75.5022 193° South 248 285 6,400 -1,080 Descending FAA TRACON SMA TRACON (SMA)
02:42PM 40.5058 -75.5153 189° South 227 261 5,700 -900 Descending FAA TRACON SMA TRACON (SMA)
02:43PM 40.4678 -75.5228 185° South 220 253 5,200 -540 Descending FAA TRACON SMA TRACON (SMA)
02:43PM 40.4256 -75.5275 152° Southeast 226 260 5,000 -180 Descending FAA TRACON SMA TRACON (SMA)
02:44PM 40.3847 -75.4989 143° Southeast 247 284 5,000  Level FAA TRACON SMA TRACON (SMA)
02:45PM 40.3514 -75.4661 142° Southeast 242 278 5,000  Level FAA TRACON SMA TRACON (SMA)
02:45PM 40.3150 -75.4294 144° Southeast 238 274 5,000  Level FAA TRACON SMA TRACON (SMA)
02:46PM 40.2797 -75.3953 143° Southeast 233 268 5,000  Level FAA TRACON SMA TRACON (SMA)
02:47PM 40.2475 -75.3631 144° Southeast 230 265 5,000 -120 Level FAA TRACON SMA TRACON (SMA)
02:47PM 40.2119 -75.3286 142° Southeast 229 264 4,900 -420 Descending FAA TRACON SMA TRACON (SMA)
02:48PM 40.1764 -75.2928 143° Southeast 230 265 4,500 -540 Descending FAA TRACON SMA TRACON (SMA)
02:49PM 40.1447 -75.2611 141° Southeast 226 260 4,200 -420 Descending FAA TRACON SMA TRACON (SMA)
02:49PM 40.1119 -75.2269 143° Southeast 223 257 4,000 -180 Descending FAA TRACON SMA TRACON (SMA)
02:50PM 40.0792 -75.1944 144° Southeast 212 244 4,000  Level FAA TRACON SMA TRACON (SMA)
02:51PM 40.0475 -75.1639 143° Southeast 228 262 4,000  Level FAA TRACON SMA TRACON (SMA)
02:51PM 40.0119 -75.1294 143° Southeast 228 262 4,000  Level FAA TRACON SMA TRACON (SMA)
02:52PM 39.9814 -75.0992 135° Southeast 214 246 4,000  Level FAA TRACON SMA TRACON (SMA)
02:53PM 39.9528 -75.0617 68° East 214 246 4,000  Level FAA TRACON SMA TRACON (SMA)
02:53PM 39.9661 -75.0183 59° Northeast 201 231 4,000  Level FAA TRACON SMA TRACON (SMA)
02:54PM 39.9842 -74.9783 139° Southeast 207 238 4,000  Level FAA TRACON SMA TRACON (SMA)
02:55PM 39.9539 -74.9442 231° Southwest 195 224 4,000  Level FAA TRACON SMA TRACON (SMA)
02:55PM 39.9336 -74.9772 255° West 183 211 4,000 -480 Level FAA TRACON SMA TRACON (SMA)
02:56PM 39.9256 -75.0178 256° West 182 209 3,400 -1,080 Descending FAA TRACON SMA TRACON (SMA)
02:57PM 39.9161 -75.0669 256° West 194 223 2,600 -1,200 Descending FAA TRACON SMA TRACON (SMA)